sensor_id;sensor_type;location;lat;lon;timestamp;temperature;humidity
9915;DHT22;4996;48.746;9.174;2023-04-30T00:01:37;13.10;99.90
9915;DHT22;4996;48.746;9.174;2023-04-30T00:04:03;13.10;99.90
9915;DHT22;4996;48.746;9.174;2023-04-30T00:06:28;13.10;99.90
9915;DHT22;4996;48.746;9.174;2023-04-30T00:08:54;12.90;99.90
9915;DHT22;4996;48.746;9.174;2023-04-30T00:11:20;12.90;99.90
9915;DHT22;4996;48.746;9.174;2023-04-30T00:13:45;13.00;99.90
9915;DHT22;4996;48.746;9.174;2023-04-30T00:16:11;13.00;99.90
9915;DHT22;4996;48.746;9.174;2023-04-30T00:18:37;13.00;99.90
9915;DHT22;4996;48.746;9.174;2023-04-30T00:21:03;13.10;99.90
9915;DHT22;4996;48.746;9.174;2023-04-30T00:23:29;13.00;99.90
9915;DHT22;4996;48.746;9.174;2023-04-30T00:25:54;13.00;99.90
9915;DHT22;4996;48.746;9.174;2023-04-30T00:28:20;13.00;99.90
9915;DHT22;4996;48.746;9.174;2023-04-30T00:30:45;12.90;99.90
9915;DHT22;4996;48.746;9.174;2023-04-30T00:33:11;13.00;99.90
9915;DHT22;4996;48.746;9.174;2023-04-30T00:35:37;12.90;99.90
9915;DHT22;4996;48.746;9.174;2023-04-30T00:38:02;12.90;99.90
9915;DHT22;4996;48.746;9.174;2023-04-30T00:40:28;12.90;99.90
9915;DHT22;4996;48.746;9.174;2023-04-30T00:42:53;12.90;99.90
9915;DHT22;4996;48.746;9.174;2023-04-30T00:45:20;12.90;99.90
9915;DHT22;4996;48.746;9.174;2023-04-30T00:47:46;12.90;99.90
9915;DHT22;4996;48.746;9.174;2023-04-30T00:50:12;12.90;99.90
9915;DHT22;4996;48.746;9.174;2023-04-30T00:52:43;12.90;99.90
9915;DHT22;4996;48.746;9.174;2023-04-30T00:55:10;12.90;99.90
9915;DHT22;4996;48.746;9.174;2023-04-30T00:57:37;12.90;99.90
9915;DHT22;4996;48.746;9.174;2023-04-30T01:00:03;12.80;99.90
9915;DHT22;4996;48.746;9.174;2023-04-30T01:02:30;12.80;99.90
9915;DHT22;4996;48.746;9.174;2023-04-30T01:04:56;12.80;99.90
9915;DHT22;4996;48.746;9.174;2023-04-30T01:07:23;12.80;99.90
9915;DHT22;4996;48.746;9.174;2023-04-30T01:09:49;12.80;99.90
9915;DHT22;4996;48.746;9.174;2023-04-30T01:15:36;12.80;99.90
9915;DHT22;4996;48.746;9.174;2023-04-30T01:18:11;12.80;99.90
9915;DHT22;4996;48.746;9.174;2023-04-30T01:20:42;12.70;99.90
9915;DHT22;4996;48.746;9.174;2023-04-30T01:26:12;12.70;99.90
9915;DHT22;4996;48.746;9.174;2023-04-30T01:28:39;12.70;99.90
9915;DHT22;4996;48.746;9.174;2023-04-30T01:31:13;12.70;99.90
9915;DHT22;4996;48.746;9.174;2023-04-30T01:33:39;12.50;99.90
9915;DHT22;4996;48.746;9.174;2023-04-30T01:49:48;12.20;99.90
9915;DHT22;4996;48.746;9.174;2023-04-30T01:55:13;12.10;99.90
9915;DHT22;4996;48.746;9.174;2023-04-30T01:57:59;12.20;99.90
9915;DHT22;4996;48.746;9.174;2023-04-30T02:00:26;12.10;99.90
9915;DHT22;4996;48.746;9.174;2023-04-30T02:02:52;12.10;99.90
9915;DHT22;4996;48.746;9.174;2023-04-30T02:05:17;12.20;99.90
9915;DHT22;4996;48.746;9.174;2023-04-30T02:07:45;12.10;99.90
9915;DHT22;4996;48.746;9.174;2023-04-30T02:10:12;12.30;99.90
9915;DHT22;4996;48.746;9.174;2023-04-30T02:12:38;12.20;99.90
9915;DHT22;4996;48.746;9.174;2023-04-30T02:15:05;12.20;99.90
9915;DHT22;4996;48.746;9.174;2023-04-30T02:17:31;12.20;99.90
9915;DHT22;4996;48.746;9.174;2023-04-30T02:19:57;12.30;99.90
9915;DHT22;4996;48.746;9.174;2023-04-30T02:22:23;12.30;99.90
9915;DHT22;4996;48.746;9.174;2023-04-30T02:24:49;12.10;99.90
9915;DHT22;4996;48.746;9.174;2023-04-30T02:27:15;12.20;99.90
9915;DHT22;4996;48.746;9.174;2023-04-30T02:29:40;12.20;99.90
9915;DHT22;4996;48.746;9.174;2023-04-30T02:32:06;12.30;99.90
9915;DHT22;4996;48.746;9.174;2023-04-30T02:34:31;12.20;99.90
9915;DHT22;4996;48.746;9.174;2023-04-30T02:36:57;12.30;99.90
9915;DHT22;4996;48.746;9.174;2023-04-30T02:39:23;12.10;99.90
9915;DHT22;4996;48.746;9.174;2023-04-30T02:41:48;12.10;99.90
9915;DHT22;4996;48.746;9.174;2023-04-30T02:44:14;12.10;99.90
9915;DHT22;4996;48.746;9.174;2023-04-30T02:46:40;12.10;99.90
9915;DHT22;4996;48.746;9.174;2023-04-30T02:49:05;12.10;99.90
9915;DHT22;4996;48.746;9.174;2023-04-30T02:51:31;12.10;99.90
9915;DHT22;4996;48.746;9.174;2023-04-30T02:53:57;12.10;99.90
9915;DHT22;4996;48.746;9.174;2023-04-30T02:56:23;12.10;99.90
9915;DHT22;4996;48.746;9.174;2023-04-30T02:58:48;12.10;99.90
9915;DHT22;4996;48.746;9.174;2023-04-30T03:01:14;12.10;99.90
9915;DHT22;4996;48.746;9.174;2023-04-30T03:03:39;12.00;99.90
9915;DHT22;4996;48.746;9.174;2023-04-30T03:06:05;12.10;99.90
9915;DHT22;4996;48.746;9.174;2023-04-30T03:08:31;12.10;99.90
9915;DHT22;4996;48.746;9.174;2023-04-30T03:10:56;12.10;99.90
9915;DHT22;4996;48.746;9.174;2023-04-30T03:13:22;12.10;99.90
9915;DHT22;4996;48.746;9.174;2023-04-30T03:15:58;12.10;99.90
9915;DHT22;4996;48.746;9.174;2023-04-30T03:18:25;12.10;99.90
9915;DHT22;4996;48.746;9.174;2023-04-30T03:20:50;12.10;99.90
9915;DHT22;4996;48.746;9.174;2023-04-30T03:23:16;12.10;99.90
9915;DHT22;4996;48.746;9.174;2023-04-30T03:25:41;12.10;99.90
9915;DHT22;4996;48.746;9.174;2023-04-30T03:28:07;12.10;99.90
9915;DHT22;4996;48.746;9.174;2023-04-30T03:30:32;12.10;99.90
9915;DHT22;4996;48.746;9.174;2023-04-30T03:32:58;12.20;99.90
9915;DHT22;4996;48.746;9.174;2023-04-30T03:35:23;12.20;99.90
9915;DHT22;4996;48.746;9.174;2023-04-30T03:37:49;12.20;99.90
9915;DHT22;4996;48.746;9.174;2023-04-30T03:40:15;12.20;99.90
9915;DHT22;4996;48.746;9.174;2023-04-30T03:42:47;12.20;99.90
9915;DHT22;4996;48.746;9.174;2023-04-30T03:45:12;12.20;99.90
9915;DHT22;4996;48.746;9.174;2023-04-30T03:47:38;12.20;99.90
9915;DHT22;4996;48.746;9.174;2023-04-30T03:50:03;12.20;99.90
9915;DHT22;4996;48.746;9.174;2023-04-30T03:52:29;12.30;99.90
9915;DHT22;4996;48.746;9.174;2023-04-30T03:54:55;12.30;99.90
9915;DHT22;4996;48.746;9.174;2023-04-30T03:57:21;12.30;99.90
9915;DHT22;4996;48.746;9.174;2023-04-30T03:59:48;12.30;99.90
9915;DHT22;4996;48.746;9.174;2023-04-30T04:02:14;12.40;99.90
9915;DHT22;4996;48.746;9.174;2023-04-30T04:04:40;12.30;99.90
9915;DHT22;4996;48.746;9.174;2023-04-30T04:07:05;12.30;99.90
9915;DHT22;4996;48.746;9.174;2023-04-30T04:09:32;12.30;99.90
9915;DHT22;4996;48.746;9.174;2023-04-30T04:11:57;12.30;99.90
9915;DHT22;4996;48.746;9.174;2023-04-30T04:14:23;12.30;99.90
9915;DHT22;4996;48.746;9.174;2023-04-30T04:16:48;12.30;99.90
9915;DHT22;4996;48.746;9.174;2023-04-30T04:19:14;12.30;99.90
9915;DHT22;4996;48.746;9.174;2023-04-30T04:21:39;12.40;99.90
9915;DHT22;4996;48.746;9.174;2023-04-30T04:24:05;12.40;99.90
9915;DHT22;4996;48.746;9.174;2023-04-30T04:26:36;12.40;99.90
9915;DHT22;4996;48.746;9.174;2023-04-30T04:29:02;12.20;99.90
9915;DHT22;4996;48.746;9.174;2023-04-30T04:31:29;12.20;99.90
9915;DHT22;4996;48.746;9.174;2023-04-30T04:33:57;12.30;99.90
9915;DHT22;4996;48.746;9.174;2023-04-30T04:36:24;12.40;99.90
9915;DHT22;4996;48.746;9.174;2023-04-30T04:38:52;12.40;99.90
9915;DHT22;4996;48.746;9.174;2023-04-30T04:41:17;12.10;99.90
9915;DHT22;4996;48.746;9.174;2023-04-30T04:43:43;12.10;99.90
9915;DHT22;4996;48.746;9.174;2023-04-30T04:46:08;12.10;99.90
9915;DHT22;4996;48.746;9.174;2023-04-30T04:48:34;12.20;99.90
9915;DHT22;4996;48.746;9.174;2023-04-30T04:51:00;12.30;99.90
9915;DHT22;4996;48.746;9.174;2023-04-30T04:53:25;12.30;99.90
9915;DHT22;4996;48.746;9.174;2023-04-30T04:55:51;12.30;99.90
9915;DHT22;4996;48.746;9.174;2023-04-30T04:58:16;12.30;99.90
9915;DHT22;4996;48.746;9.174;2023-04-30T05:00:43;12.30;99.90
9915;DHT22;4996;48.746;9.174;2023-04-30T05:03:08;12.40;99.90
9915;DHT22;4996;48.746;9.174;2023-04-30T05:05:34;12.40;99.90
9915;DHT22;4996;48.746;9.174;2023-04-30T05:08:00;12.40;99.90
9915;DHT22;4996;48.746;9.174;2023-04-30T05:10:25;12.30;99.90
9915;DHT22;4996;48.746;9.174;2023-04-30T05:12:51;12.30;99.90
9915;DHT22;4996;48.746;9.174;2023-04-30T05:15:16;12.30;99.90
9915;DHT22;4996;48.746;9.174;2023-04-30T05:17:42;12.30;99.90
9915;DHT22;4996;48.746;9.174;2023-04-30T05:20:08;12.20;99.90
9915;DHT22;4996;48.746;9.174;2023-04-30T05:22:33;12.10;99.90
9915;DHT22;4996;48.746;9.174;2023-04-30T05:24:59;12.20;99.90
9915;DHT22;4996;48.746;9.174;2023-04-30T05:27:24;12.30;99.90
9915;DHT22;4996;48.746;9.174;2023-04-30T05:29:51;12.20;99.90
9915;DHT22;4996;48.746;9.174;2023-04-30T05:32:16;12.30;99.90
9915;DHT22;4996;48.746;9.174;2023-04-30T05:34:42;12.30;99.90
9915;DHT22;4996;48.746;9.174;2023-04-30T05:37:07;12.30;99.90
9915;DHT22;4996;48.746;9.174;2023-04-30T05:39:33;12.40;99.90
9915;DHT22;4996;48.746;9.174;2023-04-30T05:41:58;12.30;99.90
9915;DHT22;4996;48.746;9.174;2023-04-30T05:44:24;12.30;99.90
9915;DHT22;4996;48.746;9.174;2023-04-30T05:46:49;12.40;99.90
9915;DHT22;4996;48.746;9.174;2023-04-30T05:49:15;12.50;99.90
9915;DHT22;4996;48.746;9.174;2023-04-30T05:51:40;12.50;99.90
9915;DHT22;4996;48.746;9.174;2023-04-30T05:54:06;12.60;99.90
9915;DHT22;4996;48.746;9.174;2023-04-30T05:56:32;12.80;99.90
9915;DHT22;4996;48.746;9.174;2023-04-30T05:58:57;12.80;99.90
9915;DHT22;4996;48.746;9.174;2023-04-30T06:01:24;12.90;99.90
9915;DHT22;4996;48.746;9.174;2023-04-30T06:03:49;12.90;99.90
9915;DHT22;4996;48.746;9.174;2023-04-30T06:06:15;12.80;99.90
9915;DHT22;4996;48.746;9.174;2023-04-30T06:08:40;12.80;99.90
9915;DHT22;4996;48.746;9.174;2023-04-30T06:11:09;12.60;99.90
9915;DHT22;4996;48.746;9.174;2023-04-30T06:13:35;12.60;99.90
9915;DHT22;4996;48.746;9.174;2023-04-30T06:16:01;12.60;99.90
9915;DHT22;4996;48.746;9.174;2023-04-30T06:18:26;12.70;99.90
9915;DHT22;4996;48.746;9.174;2023-04-30T06:20:52;12.80;99.90
9915;DHT22;4996;48.746;9.174;2023-04-30T06:23:17;12.80;99.90
9915;DHT22;4996;48.746;9.174;2023-04-30T06:25:43;12.80;99.90
9915;DHT22;4996;48.746;9.174;2023-04-30T06:28:08;12.90;99.90
9915;DHT22;4996;48.746;9.174;2023-04-30T06:30:35;12.90;99.90
9915;DHT22;4996;48.746;9.174;2023-04-30T06:33:00;12.90;99.90
9915;DHT22;4996;48.746;9.174;2023-04-30T06:35:26;13.10;99.90
9915;DHT22;4996;48.746;9.174;2023-04-30T06:37:51;13.30;99.90
9915;DHT22;4996;48.746;9.174;2023-04-30T06:40:17;13.10;99.90
9915;DHT22;4996;48.746;9.174;2023-04-30T06:42:43;13.10;99.90
9915;DHT22;4996;48.746;9.174;2023-04-30T06:45:09;13.20;99.90
9915;DHT22;4996;48.746;9.174;2023-04-30T06:47:35;13.30;99.90
9915;DHT22;4996;48.746;9.174;2023-04-30T06:50:01;13.50;99.90
9915;DHT22;4996;48.746;9.174;2023-04-30T06:52:27;13.60;99.90
9915;DHT22;4996;48.746;9.174;2023-04-30T06:54:52;13.70;99.90
9915;DHT22;4996;48.746;9.174;2023-04-30T06:57:18;13.90;99.90
9915;DHT22;4996;48.746;9.174;2023-04-30T06:59:43;13.80;99.90
9915;DHT22;4996;48.746;9.174;2023-04-30T07:02:09;14.00;99.90
9915;DHT22;4996;48.746;9.174;2023-04-30T07:04:35;14.20;99.90
9915;DHT22;4996;48.746;9.174;2023-04-30T07:07:00;14.40;99.90
9915;DHT22;4996;48.746;9.174;2023-04-30T07:09:27;14.20;99.90
9915;DHT22;4996;48.746;9.174;2023-04-30T07:11:53;13.90;99.90
9915;DHT22;4996;48.746;9.174;2023-04-30T07:14:19;13.80;99.90
9915;DHT22;4996;48.746;9.174;2023-04-30T07:16:45;13.90;99.90
9915;DHT22;4996;48.746;9.174;2023-04-30T07:19:11;14.00;99.90
9915;DHT22;4996;48.746;9.174;2023-04-30T07:21:36;14.20;99.90
9915;DHT22;4996;48.746;9.174;2023-04-30T07:24:02;14.30;99.90
9915;DHT22;4996;48.746;9.174;2023-04-30T07:26:27;14.40;99.90
9915;DHT22;4996;48.746;9.174;2023-04-30T07:28:53;14.30;99.90
9915;DHT22;4996;48.746;9.174;2023-04-30T07:31:19;14.30;99.90
9915;DHT22;4996;48.746;9.174;2023-04-30T07:33:45;14.30;99.90
9915;DHT22;4996;48.746;9.174;2023-04-30T07:36:11;14.40;99.90
9915;DHT22;4996;48.746;9.174;2023-04-30T07:38:36;14.40;99.90
9915;DHT22;4996;48.746;9.174;2023-04-30T07:41:02;14.30;99.90
9915;DHT22;4996;48.746;9.174;2023-04-30T07:43:27;14.30;99.90
9915;DHT22;4996;48.746;9.174;2023-04-30T07:45:53;14.40;99.90
9915;DHT22;4996;48.746;9.174;2023-04-30T07:48:19;14.20;99.90
9915;DHT22;4996;48.746;9.174;2023-04-30T07:50:48;14.40;99.90
9915;DHT22;4996;48.746;9.174;2023-04-30T07:53:14;14.90;99.90
9915;DHT22;4996;48.746;9.174;2023-04-30T07:55:39;14.60;99.90
9915;DHT22;4996;48.746;9.174;2023-04-30T07:58:05;14.70;99.90
9915;DHT22;4996;48.746;9.174;2023-04-30T08:00:31;15.30;99.90
9915;DHT22;4996;48.746;9.174;2023-04-30T08:02:57;15.40;99.90
9915;DHT22;4996;48.746;9.174;2023-04-30T08:05:23;15.40;99.90
9915;DHT22;4996;48.746;9.174;2023-04-30T08:07:49;15.60;99.90
9915;DHT22;4996;48.746;9.174;2023-04-30T08:10:14;15.50;99.90
9915;DHT22;4996;48.746;9.174;2023-04-30T08:12:40;16.00;99.90
9915;DHT22;4996;48.746;9.174;2023-04-30T08:15:06;16.00;99.90
9915;DHT22;4996;48.746;9.174;2023-04-30T08:17:33;15.80;99.90
9915;DHT22;4996;48.746;9.174;2023-04-30T08:20:00;15.90;99.90
9915;DHT22;4996;48.746;9.174;2023-04-30T08:22:25;16.20;99.90
9915;DHT22;4996;48.746;9.174;2023-04-30T08:24:51;16.40;99.90
9915;DHT22;4996;48.746;9.174;2023-04-30T08:27:17;16.20;99.90
9915;DHT22;4996;48.746;9.174;2023-04-30T08:29:43;16.10;99.90
9915;DHT22;4996;48.746;9.174;2023-04-30T08:32:08;16.00;99.90
9915;DHT22;4996;48.746;9.174;2023-04-30T08:34:34;15.80;99.90
9915;DHT22;4996;48.746;9.174;2023-04-30T08:37:00;15.80;99.90
9915;DHT22;4996;48.746;9.174;2023-04-30T08:39:26;15.60;99.90
9915;DHT22;4996;48.746;9.174;2023-04-30T08:41:55;15.90;99.90
9915;DHT22;4996;48.746;9.174;2023-04-30T08:44:21;16.00;99.90
9915;DHT22;4996;48.746;9.174;2023-04-30T08:46:56;15.60;99.90
9915;DHT22;4996;48.746;9.174;2023-04-30T08:49:23;15.40;99.90
9915;DHT22;4996;48.746;9.174;2023-04-30T08:51:50;15.40;99.90
9915;DHT22;4996;48.746;9.174;2023-04-30T08:54:17;15.70;99.90
9915;DHT22;4996;48.746;9.174;2023-04-30T08:56:46;15.70;99.90
9915;DHT22;4996;48.746;9.174;2023-04-30T08:59:12;15.50;99.90
9915;DHT22;4996;48.746;9.174;2023-04-30T09:01:38;15.50;99.90
9915;DHT22;4996;48.746;9.174;2023-04-30T09:04:05;15.10;99.90
9915;DHT22;4996;48.746;9.174;2023-04-30T09:06:30;15.20;99.90
9915;DHT22;4996;48.746;9.174;2023-04-30T09:08:56;15.20;99.90
9915;DHT22;4996;48.746;9.174;2023-04-30T09:11:23;15.40;99.90
9915;DHT22;4996;48.746;9.174;2023-04-30T09:13:50;15.50;99.90
9915;DHT22;4996;48.746;9.174;2023-04-30T09:16:22;15.80;99.90
9915;DHT22;4996;48.746;9.174;2023-04-30T09:18:48;16.00;99.90
9915;DHT22;4996;48.746;9.174;2023-04-30T09:21:14;15.80;99.90
9915;DHT22;4996;48.746;9.174;2023-04-30T09:23:54;15.60;99.90
9915;DHT22;4996;48.746;9.174;2023-04-30T09:26:25;15.80;99.90
9915;DHT22;4996;48.746;9.174;2023-04-30T09:28:55;15.90;99.90
9915;DHT22;4996;48.746;9.174;2023-04-30T09:31:24;16.20;99.90
9915;DHT22;4996;48.746;9.174;2023-04-30T09:33:51;16.40;99.90
9915;DHT22;4996;48.746;9.174;2023-04-30T09:36:18;16.00;99.90
9915;DHT22;4996;48.746;9.174;2023-04-30T09:38:44;16.20;99.90
9915;DHT22;4996;48.746;9.174;2023-04-30T09:41:27;16.30;99.90
9915;DHT22;4996;48.746;9.174;2023-04-30T09:43:53;16.40;99.90
9915;DHT22;4996;48.746;9.174;2023-04-30T09:46:20;16.60;99.90
9915;DHT22;4996;48.746;9.174;2023-04-30T09:48:51;16.90;99.90
9915;DHT22;4996;48.746;9.174;2023-04-30T09:51:20;17.00;99.90
9915;DHT22;4996;48.746;9.174;2023-04-30T09:53:46;16.50;99.90
9915;DHT22;4996;48.746;9.174;2023-04-30T09:56:13;16.70;99.90
9915;DHT22;4996;48.746;9.174;2023-04-30T09:58:43;16.40;99.90
9915;DHT22;4996;48.746;9.174;2023-04-30T10:01:13;16.10;99.90
9915;DHT22;4996;48.746;9.174;2023-04-30T10:03:39;16.40;99.90
9915;DHT22;4996;48.746;9.174;2023-04-30T10:06:06;16.60;99.90
9915;DHT22;4996;48.746;9.174;2023-04-30T10:08:50;16.80;99.90
9915;DHT22;4996;48.746;9.174;2023-04-30T10:11:19;16.90;99.90
9915;DHT22;4996;48.746;9.174;2023-04-30T10:13:59;16.90;99.90
9915;DHT22;4996;48.746;9.174;2023-04-30T10:16:43;16.70;99.90
9915;DHT22;4996;48.746;9.174;2023-04-30T10:19:21;16.90;99.90
9915;DHT22;4996;48.746;9.174;2023-04-30T10:21:47;16.90;99.90
9915;DHT22;4996;48.746;9.174;2023-04-30T10:24:15;17.10;99.90
9915;DHT22;4996;48.746;9.174;2023-04-30T10:26:44;17.30;99.60
9915;DHT22;4996;48.746;9.174;2023-04-30T10:29:12;17.40;99.20
9915;DHT22;4996;48.746;9.174;2023-04-30T10:31:40;17.70;99.10
9915;DHT22;4996;48.746;9.174;2023-04-30T10:37:04;17.00;98.40
9915;DHT22;4996;48.746;9.174;2023-04-30T10:39:32;16.80;98.80
9915;DHT22;4996;48.746;9.174;2023-04-30T10:42:03;17.10;99.60
9915;DHT22;4996;48.746;9.174;2023-04-30T10:44:33;17.40;99.10
9915;DHT22;4996;48.746;9.174;2023-04-30T10:47:00;17.40;98.20
9915;DHT22;4996;48.746;9.174;2023-04-30T10:49:29;17.60;97.90
9915;DHT22;4996;48.746;9.174;2023-04-30T10:51:58;17.60;97.70
9915;DHT22;4996;48.746;9.174;2023-04-30T10:54:27;17.50;98.20
9915;DHT22;4996;48.746;9.174;2023-04-30T10:56:54;17.30;98.20
9915;DHT22;4996;48.746;9.174;2023-04-30T10:59:33;17.20;98.10
9915;DHT22;4996;48.746;9.174;2023-04-30T11:02:00;17.30;98.20
9915;DHT22;4996;48.746;9.174;2023-04-30T11:04:26;17.30;98.00
9915;DHT22;4996;48.746;9.174;2023-04-30T11:12:04;17.10;98.20
9915;DHT22;4996;48.746;9.174;2023-04-30T11:14:34;17.10;98.50
9915;DHT22;4996;48.746;9.174;2023-04-30T11:16:59;17.20;98.80
9915;DHT22;4996;48.746;9.174;2023-04-30T11:19:28;17.30;99.00
9915;DHT22;4996;48.746;9.174;2023-04-30T11:27:23;17.30;97.40
9915;DHT22;4996;48.746;9.174;2023-04-30T11:29:50;17.50;98.10
9915;DHT22;4996;48.746;9.174;2023-04-30T11:32:18;17.40;97.00
9915;DHT22;4996;48.746;9.174;2023-04-30T11:34:45;17.40;97.10
9915;DHT22;4996;48.746;9.174;2023-04-30T11:37:26;17.40;97.40
9915;DHT22;4996;48.746;9.174;2023-04-30T11:39:54;17.30;96.90
9915;DHT22;4996;48.746;9.174;2023-04-30T11:42:20;17.40;96.50
9915;DHT22;4996;48.746;9.174;2023-04-30T11:44:46;17.30;96.40
9915;DHT22;4996;48.746;9.174;2023-04-30T11:47:14;17.30;96.60
9915;DHT22;4996;48.746;9.174;2023-04-30T11:49:41;17.60;96.90
9915;DHT22;4996;48.746;9.174;2023-04-30T11:52:07;17.70;96.30
9915;DHT22;4996;48.746;9.174;2023-04-30T11:54:37;17.90;95.60
9915;DHT22;4996;48.746;9.174;2023-04-30T11:57:03;17.80;95.50
9915;DHT22;4996;48.746;9.174;2023-04-30T11:59:29;17.90;95.60
9915;DHT22;4996;48.746;9.174;2023-04-30T12:01:56;17.80;95.80
9915;DHT22;4996;48.746;9.174;2023-04-30T12:04:22;18.00;95.80
9915;DHT22;4996;48.746;9.174;2023-04-30T12:06:48;18.00;95.40
9915;DHT22;4996;48.746;9.174;2023-04-30T12:09:13;18.10;95.60
9915;DHT22;4996;48.746;9.174;2023-04-30T12:11:39;18.00;95.40
9915;DHT22;4996;48.746;9.174;2023-04-30T12:14:07;18.30;95.10
9915;DHT22;4996;48.746;9.174;2023-04-30T12:16:48;18.00;94.40
9915;DHT22;4996;48.746;9.174;2023-04-30T12:19:18;18.20;95.20
9915;DHT22;4996;48.746;9.174;2023-04-30T12:21:45;17.70;94.10
9915;DHT22;4996;48.746;9.174;2023-04-30T12:24:13;17.70;95.10
9915;DHT22;4996;48.746;9.174;2023-04-30T12:26:40;17.90;94.70
9915;DHT22;4996;48.746;9.174;2023-04-30T12:29:14;18.10;94.60
9915;DHT22;4996;48.746;9.174;2023-04-30T12:31:40;18.30;94.30
9915;DHT22;4996;48.746;9.174;2023-04-30T12:34:07;18.50;94.20
9915;DHT22;4996;48.746;9.174;2023-04-30T12:36:33;18.10;93.90
9915;DHT22;4996;48.746;9.174;2023-04-30T12:39:21;17.50;95.00
9915;DHT22;4996;48.746;9.174;2023-04-30T12:41:48;17.30;95.40
9915;DHT22;4996;48.746;9.174;2023-04-30T12:44:22;17.30;95.30
9915;DHT22;4996;48.746;9.174;2023-04-30T12:46:50;17.70;95.90
9915;DHT22;4996;48.746;9.174;2023-04-30T12:49:32;18.00;95.00
9915;DHT22;4996;48.746;9.174;2023-04-30T12:52:00;18.10;95.10
9915;DHT22;4996;48.746;9.174;2023-04-30T12:54:27;17.80;95.70
9915;DHT22;4996;48.746;9.174;2023-04-30T12:57:04;18.00;95.30
9915;DHT22;4996;48.746;9.174;2023-04-30T12:59:32;18.20;95.30
9915;DHT22;4996;48.746;9.174;2023-04-30T13:02:11;18.10;94.70
9915;DHT22;4996;48.746;9.174;2023-04-30T13:04:38;18.20;94.60
9915;DHT22;4996;48.746;9.174;2023-04-30T13:07:04;18.30;94.90
9915;DHT22;4996;48.746;9.174;2023-04-30T13:09:34;18.40;94.70
9915;DHT22;4996;48.746;9.174;2023-04-30T13:12:01;18.30;94.10
9915;DHT22;4996;48.746;9.174;2023-04-30T13:14:26;18.30;94.60
9915;DHT22;4996;48.746;9.174;2023-04-30T13:16:52;18.50;94.00
9915;DHT22;4996;48.746;9.174;2023-04-30T13:19:18;19.10;94.30
9915;DHT22;4996;48.746;9.174;2023-04-30T13:21:44;19.20;93.50
9915;DHT22;4996;48.746;9.174;2023-04-30T13:24:09;19.30;93.90
9915;DHT22;4996;48.746;9.174;2023-04-30T13:26:35;19.10;93.30
9915;DHT22;4996;48.746;9.174;2023-04-30T13:29:01;19.00;93.70
9915;DHT22;4996;48.746;9.174;2023-04-30T13:31:29;19.10;93.50
9915;DHT22;4996;48.746;9.174;2023-04-30T13:33:54;19.30;93.50
9915;DHT22;4996;48.746;9.174;2023-04-30T13:36:20;19.00;92.90
9915;DHT22;4996;48.746;9.174;2023-04-30T13:38:46;19.10;92.40
9915;DHT22;4996;48.746;9.174;2023-04-30T13:41:11;19.20;92.50
9915;DHT22;4996;48.746;9.174;2023-04-30T13:43:38;19.40;92.40
9915;DHT22;4996;48.746;9.174;2023-04-30T13:46:05;19.00;92.00
9915;DHT22;4996;48.746;9.174;2023-04-30T13:48:31;18.40;92.90
9915;DHT22;4996;48.746;9.174;2023-04-30T13:50:56;18.30;93.20
9915;DHT22;4996;48.746;9.174;2023-04-30T13:53:22;18.50;92.70
9915;DHT22;4996;48.746;9.174;2023-04-30T13:55:48;18.60;93.40
9915;DHT22;4996;48.746;9.174;2023-04-30T13:58:13;18.60;92.60
9915;DHT22;4996;48.746;9.174;2023-04-30T14:00:39;18.30;93.90
9915;DHT22;4996;48.746;9.174;2023-04-30T14:03:05;18.30;93.10
9915;DHT22;4996;48.746;9.174;2023-04-30T14:05:30;18.20;93.50
9915;DHT22;4996;48.746;9.174;2023-04-30T14:07:56;18.30;92.90
9915;DHT22;4996;48.746;9.174;2023-04-30T14:10:21;18.40;92.80
9915;DHT22;4996;48.746;9.174;2023-04-30T14:12:47;18.10;92.80
9915;DHT22;4996;48.746;9.174;2023-04-30T14:15:13;18.00;93.60
9915;DHT22;4996;48.746;9.174;2023-04-30T14:17:39;18.30;93.40
9915;DHT22;4996;48.746;9.174;2023-04-30T14:20:05;18.30;92.90
9915;DHT22;4996;48.746;9.174;2023-04-30T14:22:30;18.20;92.40
9915;DHT22;4996;48.746;9.174;2023-04-30T14:25:00;18.30;91.90
9915;DHT22;4996;48.746;9.174;2023-04-30T14:27:25;18.00;93.00
9915;DHT22;4996;48.746;9.174;2023-04-30T14:29:51;17.90;92.50
9915;DHT22;4996;48.746;9.174;2023-04-30T14:32:17;18.00;93.00
9915;DHT22;4996;48.746;9.174;2023-04-30T14:34:42;17.70;93.10
9915;DHT22;4996;48.746;9.174;2023-04-30T14:37:09;17.80;92.90
9915;DHT22;4996;48.746;9.174;2023-04-30T14:39:34;17.60;93.50
9915;DHT22;4996;48.746;9.174;2023-04-30T14:41:59;17.70;92.90
9915;DHT22;4996;48.746;9.174;2023-04-30T14:44:25;18.00;92.80
9915;DHT22;4996;48.746;9.174;2023-04-30T14:46:52;18.00;92.90
9915;DHT22;4996;48.746;9.174;2023-04-30T14:49:17;18.10;92.50
9915;DHT22;4996;48.746;9.174;2023-04-30T14:51:43;18.00;92.10
9915;DHT22;4996;48.746;9.174;2023-04-30T14:54:08;18.00;92.70
9915;DHT22;4996;48.746;9.174;2023-04-30T14:56:34;18.00;92.40
9915;DHT22;4996;48.746;9.174;2023-04-30T14:59:00;18.00;92.60
9915;DHT22;4996;48.746;9.174;2023-04-30T15:01:26;18.30;92.40
9915;DHT22;4996;48.746;9.174;2023-04-30T15:03:52;18.40;92.00
9915;DHT22;4996;48.746;9.174;2023-04-30T15:06:18;18.40;92.10
9915;DHT22;4996;48.746;9.174;2023-04-30T15:08:43;18.20;91.80
9915;DHT22;4996;48.746;9.174;2023-04-30T15:11:09;18.10;92.00
9915;DHT22;4996;48.746;9.174;2023-04-30T15:13:37;18.00;92.00
9915;DHT22;4996;48.746;9.174;2023-04-30T15:16:03;18.30;92.20
9915;DHT22;4996;48.746;9.174;2023-04-30T15:18:29;18.40;92.40
9915;DHT22;4996;48.746;9.174;2023-04-30T15:20:55;18.20;92.10
9915;DHT22;4996;48.746;9.174;2023-04-30T15:23:20;18.20;92.40
9915;DHT22;4996;48.746;9.174;2023-04-30T15:25:47;18.50;92.30
9915;DHT22;4996;48.746;9.174;2023-04-30T15:28:12;18.40;91.80
9915;DHT22;4996;48.746;9.174;2023-04-30T15:30:38;18.50;92.00
9915;DHT22;4996;48.746;9.174;2023-04-30T15:33:03;18.20;91.60
9915;DHT22;4996;48.746;9.174;2023-04-30T15:35:29;18.20;91.50
9915;DHT22;4996;48.746;9.174;2023-04-30T15:37:55;18.30;91.80
9915;DHT22;4996;48.746;9.174;2023-04-30T15:40:20;18.10;92.00
9915;DHT22;4996;48.746;9.174;2023-04-30T15:42:46;18.20;92.40
9915;DHT22;4996;48.746;9.174;2023-04-30T15:45:12;18.40;92.30
9915;DHT22;4996;48.746;9.174;2023-04-30T15:47:38;18.40;92.20
9915;DHT22;4996;48.746;9.174;2023-04-30T15:50:03;18.40;92.40
9915;DHT22;4996;48.746;9.174;2023-04-30T15:52:29;18.60;91.90
9915;DHT22;4996;48.746;9.174;2023-04-30T15:54:55;18.30;91.70
9915;DHT22;4996;48.746;9.174;2023-04-30T15:57:21;18.20;91.90
9915;DHT22;4996;48.746;9.174;2023-04-30T15:59:46;18.20;92.40
9915;DHT22;4996;48.746;9.174;2023-04-30T16:02:12;18.10;92.20
9915;DHT22;4996;48.746;9.174;2023-04-30T16:04:37;18.10;92.90
9915;DHT22;4996;48.746;9.174;2023-04-30T16:07:03;18.20;92.60
9915;DHT22;4996;48.746;9.174;2023-04-30T16:09:29;18.30;92.40
9915;DHT22;4996;48.746;9.174;2023-04-30T16:11:55;18.20;92.20
9915;DHT22;4996;48.746;9.174;2023-04-30T16:14:21;18.20;91.90
9915;DHT22;4996;48.746;9.174;2023-04-30T16:16:46;18.30;91.90
9915;DHT22;4996;48.746;9.174;2023-04-30T16:19:12;17.50;91.80
9915;DHT22;4996;48.746;9.174;2023-04-30T16:21:38;17.50;92.60
9915;DHT22;4996;48.746;9.174;2023-04-30T16:24:05;17.60;93.30
9915;DHT22;4996;48.746;9.174;2023-04-30T16:26:30;17.50;92.80
9915;DHT22;4996;48.746;9.174;2023-04-30T16:28:56;17.70;93.20
9915;DHT22;4996;48.746;9.174;2023-04-30T16:31:21;17.80;92.90
9915;DHT22;4996;48.746;9.174;2023-04-30T16:33:47;17.90;92.60
9915;DHT22;4996;48.746;9.174;2023-04-30T16:36:13;17.90;92.60